sensor_id;sensor_type;location;lat;lon;timestamp;pressure;altitude;pressure_sealevel;temperature;humidity
21203;BME280;10759;51.982;9.232;2023-05-11T00:01:26;100153.03;;;14.19;100.00
21203;BME280;10759;51.982;9.232;2023-05-11T00:03:53;100154.00;;;14.18;100.00
21203;BME280;10759;51.982;9.232;2023-05-11T00:06:22;100146.19;;;14.13;100.00
21203;BME280;10759;51.982;9.232;2023-05-11T00:08:50;100148.94;;;14.12;100.00
21203;BME280;10759;51.982;9.232;2023-05-11T00:11:18;100151.75;;;14.10;100.00
21203;BME280;10759;51.982;9.232;2023-05-11T00:13:46;100146.34;;;14.10;100.00
21203;BME280;10759;51.982;9.232;2023-05-11T00:16:14;100153.72;;;14.07;100.00
21203;BME280;10759;51.982;9.232;2023-05-11T00:18:43;100132.19;;;13.91;100.00
21203;BME280;10759;51.982;9.232;2023-05-11T00:21:11;100148.50;;;14.04;100.00
21203;BME280;10759;51.982;9.232;2023-05-11T00:23:39;100137.13;;;13.99;100.00
21203;BME280;10759;51.982;9.232;2023-05-11T00:26:07;100123.06;;;13.93;100.00
21203;BME280;10759;51.982;9.232;2023-05-11T00:28:35;100139.03;;;14.12;100.00
21203;BME280;10759;51.982;9.232;2023-05-11T00:31:03;100146.78;;;14.18;100.00
21203;BME280;10759;51.982;9.232;2023-05-11T00:33:31;100127.56;;;14.09;100.00
21203;BME280;10759;51.982;9.232;2023-05-11T00:36:02;100101.03;;;13.85;100.00
21203;BME280;10759;51.982;9.232;2023-05-11T00:38:30;100133.03;;;14.07;100.00
21203;BME280;10759;51.982;9.232;2023-05-11T00:40:58;100140.97;;;14.10;100.00
21203;BME280;10759;51.982;9.232;2023-05-11T00:43:26;100078.22;;;13.77;100.00
21203;BME280;10759;51.982;9.232;2023-05-11T00:45:54;100137.81;;;14.02;100.00
21203;BME280;10759;51.982;9.232;2023-05-11T00:48:22;100136.34;;;13.96;100.00
21203;BME280;10759;51.982;9.232;2023-05-11T00:50:50;100125.28;;;13.85;100.00
21203;BME280;10759;51.982;9.232;2023-05-11T00:53:19;100137.13;;;13.99;100.00
21203;BME280;10759;51.982;9.232;2023-05-11T00:55:47;100135.31;;;13.99;100.00
21203;BME280;10759;51.982;9.232;2023-05-11T00:58:15;100123.06;;;13.93;100.00
21203;BME280;10759;51.982;9.232;2023-05-11T01:00:43;100128.75;;;13.87;100.00
21203;BME280;10759;51.982;9.232;2023-05-11T01:03:13;100134.88;;;13.91;100.00
21203;BME280;10759;51.982;9.232;2023-05-11T01:05:44;100141.66;;;13.98;100.00
21203;BME280;10759;51.982;9.232;2023-05-11T01:08:20;100135.22;;;14.01;100.00
21203;BME280;10759;51.982;9.232;2023-05-11T01:10:55;100128.94;;;14.00;100.00
21203;BME280;10759;51.982;9.232;2023-05-11T01:13:29;100139.41;;;14.06;100.00
21203;BME280;10759;51.982;9.232;2023-05-11T01:16:01;100138.09;;;14.13;100.00
21203;BME280;10759;51.982;9.232;2023-05-11T01:18:35;100108.44;;;13.98;100.00
21203;BME280;10759;51.982;9.232;2023-05-11T01:21:10;100137.22;;;14.13;100.00
21203;BME280;10759;51.982;9.232;2023-05-11T01:24:21;100134.88;;;14.07;100.00
21203;BME280;10759;51.982;9.232;2023-05-11T01:27:05;100132.53;;;14.01;100.00
21203;BME280;10759;51.982;9.232;2023-05-11T01:29:49;100135.97;;;14.03;100.00
21203;BME280;10759;51.982;9.232;2023-05-11T01:32:26;100117.38;;;13.82;100.00
21203;BME280;10759;51.982;9.232;2023-05-11T01:35:02;100135.84;;;14.06;100.00
21203;BME280;10759;51.982;9.232;2023-05-11T01:37:31;100137.75;;;14.04;100.00
21203;BME280;10759;51.982;9.232;2023-05-11T01:40:02;100142.16;;;14.05;100.00
21203;BME280;10759;51.982;9.232;2023-05-11T01:42:37;100140.88;;;14.12;100.00
21203;BME280;10759;51.982;9.232;2023-05-11T01:45:07;100144.09;;;14.18;100.00
21203;BME280;10759;51.982;9.232;2023-05-11T01:47:39;99977.72;;;13.11;100.00
21203;BME280;10759;51.982;9.232;2023-05-11T01:50:09;100143.56;;;14.12;100.00
21203;BME280;10759;51.982;9.232;2023-05-11T01:52:39;100150.41;;;14.02;100.00
21203;BME280;10759;51.982;9.232;2023-05-11T01:55:08;100151.38;;;14.01;100.00
21203;BME280;10759;51.982;9.232;2023-05-11T01:57:37;100127.91;;;13.87;100.00
21203;BME280;10759;51.982;9.232;2023-05-11T02:00:07;100134.88;;;13.91;100.00
21203;BME280;10759;51.982;9.232;2023-05-11T02:02:40;100155.03;;;14.00;100.00
21203;BME280;10759;51.982;9.232;2023-05-11T02:05:11;100134.16;;;13.87;100.00
21203;BME280;10759;51.982;9.232;2023-05-11T02:07:40;99992.78;;;12.98;100.00
21203;BME280;10759;51.982;9.232;2023-05-11T02:10:10;100153.19;;;13.84;100.00
21203;BME280;10759;51.982;9.232;2023-05-11T02:12:39;100157.78;;;13.82;100.00
21203;BME280;10759;51.982;9.232;2023-05-11T02:15:09;100155.88;;;13.84;100.00
21203;BME280;10759;51.982;9.232;2023-05-11T02:17:37;100150.81;;;13.78;100.00
21203;BME280;10759;51.982;9.232;2023-05-11T02:20:09;100160.22;;;13.87;100.00
21203;BME280;10759;51.982;9.232;2023-05-11T02:22:38;100155.88;;;13.84;100.00
21203;BME280;10759;51.982;9.232;2023-05-11T02:25:08;100156.06;;;13.81;100.00
21203;BME280;10759;51.982;9.232;2023-05-11T02:27:38;100161.19;;;13.86;100.00
21203;BME280;10759;51.982;9.232;2023-05-11T02:30:07;100148.91;;;13.80;100.00
21203;BME280;10759;51.982;9.232;2023-05-11T02:32:38;100158.16;;;13.92;100.00
21203;BME280;10759;51.982;9.232;2023-05-11T02:35:15;100158.94;;;13.94;100.00
21203;BME280;10759;51.982;9.232;2023-05-11T02:37:45;100148.22;;;13.92;100.00
21203;BME280;10759;51.982;9.232;2023-05-11T02:40:18;100144.31;;;13.82;100.00
21203;BME280;10759;51.982;9.232;2023-05-11T02:42:53;100101.66;;;13.59;100.00
21203;BME280;10759;51.982;9.232;2023-05-11T02:45:23;100165.84;;;13.82;100.00
21203;BME280;10759;51.982;9.232;2023-05-11T02:47:55;100160.16;;;13.88;100.00
21203;BME280;10759;51.982;9.232;2023-05-11T02:50:29;100160.75;;;13.93;100.00
21203;BME280;10759;51.982;9.232;2023-05-11T02:53:02;100052.47;;;13.22;100.00
21203;BME280;10759;51.982;9.232;2023-05-11T02:55:33;100158.03;;;13.78;100.00
21203;BME280;10759;51.982;9.232;2023-05-11T02:58:01;100146.81;;;13.69;100.00
21203;BME280;10759;51.982;9.232;2023-05-11T03:00:29;100064.41;;;13.16;100.00
21203;BME280;10759;51.982;9.232;2023-05-11T03:02:58;100154.47;;;13.77;100.00
21203;BME280;10759;51.982;9.232;2023-05-11T03:05:27;100152.28;;;13.68;100.00
21203;BME280;10759;51.982;9.232;2023-05-11T03:07:56;100167.88;;;13.79;100.00
21203;BME280;10759;51.982;9.232;2023-05-11T03:10:25;100160.22;;;13.87;100.00
21203;BME280;10759;51.982;9.232;2023-05-11T03:12:54;100158.66;;;13.83;100.00
21203;BME280;10759;51.982;9.232;2023-05-11T03:15:23;100154.28;;;13.80;100.00
21203;BME280;10759;51.982;9.232;2023-05-11T03:17:54;100152.03;;;13.72;100.00
21203;BME280;10759;51.982;9.232;2023-05-11T03:20:22;100059.59;;;13.23;100.00
21203;BME280;10759;51.982;9.232;2023-05-11T03:22:52;100163.75;;;13.71;100.00
21203;BME280;10759;51.982;9.232;2023-05-11T03:25:21;100149.44;;;13.71;100.00
21203;BME280;10759;51.982;9.232;2023-05-11T03:27:52;100132.50;;;13.69;100.00
21203;BME280;10759;51.982;9.232;2023-05-11T03:30:21;100122.22;;;13.60;100.00
21203;BME280;10759;51.982;9.232;2023-05-11T03:32:53;100160.53;;;13.81;100.00
21203;BME280;10759;51.982;9.232;2023-05-11T03:35:24;100151.78;;;13.77;100.00
21203;BME280;10759;51.982;9.232;2023-05-11T03:37:56;100140.41;;;13.72;100.00
21203;BME280;10759;51.982;9.232;2023-05-11T03:40:26;100148.91;;;13.80;100.00
21203;BME280;10759;51.982;9.232;2023-05-11T03:43:00;100148.91;;;13.80;100.00
21203;BME280;10759;51.982;9.232;2023-05-11T03:45:30;100154.16;;;13.83;100.00
21203;BME280;10759;51.982;9.232;2023-05-11T03:48:03;100101.41;;;13.46;100.00
21203;BME280;10759;51.982;9.232;2023-05-11T03:50:31;100118.72;;;13.58;100.00
21203;BME280;10759;51.982;9.232;2023-05-11T03:53:02;100141.25;;;13.72;100.00
21203;BME280;10759;51.982;9.232;2023-05-11T03:55:31;100150.28;;;13.71;100.00
21203;BME280;10759;51.982;9.232;2023-05-11T03:57:59;100148.13;;;13.78;100.00
21203;BME280;10759;51.982;9.232;2023-05-11T04:00:30;100145.44;;;13.78;100.00
21203;BME280;10759;51.982;9.232;2023-05-11T04:03:02;100152.22;;;13.85;100.00
21203;BME280;10759;51.982;9.232;2023-05-11T04:05:31;100153.88;;;13.88;100.00
21203;BME280;10759;51.982;9.232;2023-05-11T04:08:03;100137.03;;;13.84;100.00
21203;BME280;10759;51.982;9.232;2023-05-11T04:10:32;100152.56;;;13.95;100.00
21203;BME280;10759;51.982;9.232;2023-05-11T04:12:59;100136.84;;;13.87;100.00
21203;BME280;10759;51.982;9.232;2023-05-11T04:15:27;100157.81;;;13.98;100.00
21203;BME280;10759;51.982;9.232;2023-05-11T04:17:55;100139.03;;;13.96;100.00
21203;BME280;10759;51.982;9.232;2023-05-11T04:20:23;100122.59;;;13.85;100.00
21203;BME280;10759;51.982;9.232;2023-05-11T04:22:51;100077.84;;;13.67;100.00
21203;BME280;10759;51.982;9.232;2023-05-11T04:25:21;100101.66;;;13.74;100.00
21203;BME280;10759;51.982;9.232;2023-05-11T04:27:50;100155.38;;;14.09;100.00
21203;BME280;10759;51.982;9.232;2023-05-11T04:30:18;100153.47;;;13.95;100.00
21203;BME280;10759;51.982;9.232;2023-05-11T04:32:47;100159.47;;;14.01;100.00
21203;BME280;10759;51.982;9.232;2023-05-11T04:35:15;100149.63;;;14.00;100.00
21203;BME280;10759;51.982;9.232;2023-05-11T04:37:43;100164.06;;;13.99;100.00
21203;BME280;10759;51.982;9.232;2023-05-11T04:40:12;100139.03;;;13.96;100.00
21203;BME280;10759;51.982;9.232;2023-05-11T04:42:42;100154.69;;;14.06;100.00
21203;BME280;10759;51.982;9.232;2023-05-11T04:45:16;100164.84;;;14.01;100.00
21203;BME280;10759;51.982;9.232;2023-05-11T04:47:44;100170.25;;;14.01;100.00
21203;BME280;10759;51.982;9.232;2023-05-11T04:50:13;100166.16;;;14.09;100.00
21203;BME280;10759;51.982;9.232;2023-05-11T04:52:41;100164.50;;;14.07;100.00
21203;BME280;10759;51.982;9.232;2023-05-11T04:55:08;100168.31;;;14.03;100.00
21203;BME280;10759;51.982;9.232;2023-05-11T04:57:36;100163.56;;;14.08;100.00
21203;BME280;10759;51.982;9.232;2023-05-11T05:00:08;100111.81;;;13.69;100.00
21203;BME280;10759;51.982;9.232;2023-05-11T05:02:36;100164.56;;;14.05;100.00
21203;BME280;10759;51.982;9.232;2023-05-11T05:05:05;100168.59;;;14.14;100.00
21203;BME280;10759;51.982;9.232;2023-05-11T05:07:33;100167.72;;;14.13;100.00
21203;BME280;10759;51.982;9.232;2023-05-11T05:10:01;100174.84;;;14.14;100.00
21203;BME280;10759;51.982;9.232;2023-05-11T05:12:30;100139.91;;;13.97;100.00
21203;BME280;10759;51.982;9.232;2023-05-11T05:14:58;100174.66;;;14.17;100.00
21203;BME280;10759;51.982;9.232;2023-05-11T05:17:27;100164.25;;;14.11;100.00
21203;BME280;10759;51.982;9.232;2023-05-11T05:19:55;100179.72;;;14.24;100.00
21203;BME280;10759;51.982;9.232;2023-05-11T05:22:24;100183.75;;;14.32;100.00
21203;BME280;10759;51.982;9.232;2023-05-11T05:24:52;100146.06;;;14.15;100.00
21203;BME280;10759;51.982;9.232;2023-05-11T05:27:20;100181.66;;;14.37;100.00
21203;BME280;10759;51.982;9.232;2023-05-11T05:29:48;100159.47;;;14.16;100.00
21203;BME280;10759;51.982;9.232;2023-05-11T05:32:16;100183.91;;;14.13;100.00
21203;BME280;10759;51.982;9.232;2023-05-11T05:34:46;100187.88;;;14.06;100.00
21203;BME280;10759;51.982;9.232;2023-05-11T05:37:14;100149.09;;;13.77;100.00
21203;BME280;10759;51.982;9.232;2023-05-11T05:39:43;100186.06;;;14.07;100.00
21203;BME280;10759;51.982;9.232;2023-05-11T05:42:14;100180.41;;;13.95;100.00
21203;BME280;10759;51.982;9.232;2023-05-11T05:44:41;100158.56;;;13.84;100.00
21203;BME280;10759;51.982;9.232;2023-05-11T05:47:10;100198.31;;;14.12;100.00
21203;BME280;10759;51.982;9.232;2023-05-11T05:49:38;100207.91;;;14.18;100.00
21203;BME280;10759;51.982;9.232;2023-05-11T05:52:08;100207.28;;;14.29;100.00
21203;BME280;10759;51.982;9.232;2023-05-11T05:54:38;100202.88;;;14.28;100.00
21203;BME280;10759;51.982;9.232;2023-05-11T05:57:06;100212.94;;;14.24;100.00
21203;BME280;10759;51.982;9.232;2023-05-11T05:59:34;100210.53;;;14.35;100.00
21203;BME280;10759;51.982;9.232;2023-05-11T06:02:04;100172.50;;;14.24;100.00
21203;BME280;10759;51.982;9.232;2023-05-11T06:04:32;100103.59;;;13.88;100.00
21203;BME280;10759;51.982;9.232;2023-05-11T06:07:01;100215.50;;;14.59;100.00
21203;BME280;10759;51.982;9.232;2023-05-11T06:09:30;100213.13;;;14.53;100.00
21203;BME280;10759;51.982;9.232;2023-05-11T06:11:58;100207.91;;;14.50;100.00
21203;BME280;10759;51.982;9.232;2023-05-11T06:14:26;100212.91;;;14.57;100.00
21203;BME280;10759;51.982;9.232;2023-05-11T06:16:54;100218.38;;;14.56;100.00
21203;BME280;10759;51.982;9.232;2023-05-11T06:19:22;100205.84;;;14.55;100.00
21203;BME280;10759;51.982;9.232;2023-05-11T06:21:49;100219.50;;;14.68;100.00
21203;BME280;10759;51.982;9.232;2023-05-11T06:24:18;100215.56;;;14.73;100.00
21203;BME280;10759;51.982;9.232;2023-05-11T06:26:47;100168.53;;;14.47;100.00
21203;BME280;10759;51.982;9.232;2023-05-11T06:29:16;100206.69;;;14.71;100.00
21203;BME280;10759;51.982;9.232;2023-05-11T06:31:45;100218.28;;;14.73;100.00
21203;BME280;10759;51.982;9.232;2023-05-11T06:34:15;100203.75;;;14.60;100.00
21203;BME280;10759;51.982;9.232;2023-05-11T06:36:43;100209.66;;;14.67;100.00
21203;BME280;10759;51.982;9.232;2023-05-11T06:39:11;100188.78;;;14.38;100.00
21203;BME280;10759;51.982;9.232;2023-05-11T06:41:39;100212.91;;;14.57;100.00
21203;BME280;10759;51.982;9.232;2023-05-11T06:44:08;100182.34;;;14.41;100.00
21203;BME280;10759;51.982;9.232;2023-05-11T06:46:41;100210.38;;;14.70;100.00
21203;BME280;10759;51.982;9.232;2023-05-11T06:49:09;100208.09;;;14.78;100.00
21203;BME280;10759;51.982;9.232;2023-05-11T06:51:37;100208.41;;;14.88;100.00
21203;BME280;10759;51.982;9.232;2023-05-11T06:54:05;100209.72;;;14.97;100.00
21203;BME280;10759;51.982;9.232;2023-05-11T06:56:35;100183.28;;;14.88;100.00
21203;BME280;10759;51.982;9.232;2023-05-11T06:59:03;100208.41;;;15.04;100.00
21203;BME280;10759;51.982;9.232;2023-05-11T07:01:32;100221.91;;;15.18;100.00
21203;BME280;10759;51.982;9.232;2023-05-11T07:04:00;100211.69;;;15.09;100.00
21203;BME280;10759;51.982;9.232;2023-05-11T07:06:28;100220.88;;;15.21;100.00
21203;BME280;10759;51.982;9.232;2023-05-11T07:08:56;100218.78;;;15.26;100.00
21203;BME280;10759;51.982;9.232;2023-05-11T07:11:25;100226.22;;;15.37;100.00
21203;BME280;10759;51.982;9.232;2023-05-11T07:13:53;100202.75;;;15.23;100.00
21203;BME280;10759;51.982;9.232;2023-05-11T07:16:21;100219.50;;;15.44;100.00
21203;BME280;10759;51.982;9.232;2023-05-11T07:18:50;100221.44;;;15.56;100.00
21203;BME280;10759;51.982;9.232;2023-05-11T07:21:18;100217.00;;;15.55;100.00
21203;BME280;10759;51.982;9.232;2023-05-11T07:23:48;100227.97;;;15.38;100.00
21203;BME280;10759;51.982;9.232;2023-05-11T07:26:16;100224.13;;;15.42;100.00
21203;BME280;10759;51.982;9.232;2023-05-11T07:28:43;100121.66;;;15.10;100.00
21203;BME280;10759;51.982;9.232;2023-05-11T07:31:11;100215.81;;;15.89;100.00
21203;BME280;10759;51.982;9.232;2023-05-11T07:33:39;100218.34;;;15.93;100.00
21203;BME280;10759;51.982;9.232;2023-05-11T07:36:09;100223.63;;;15.94;100.00
21203;BME280;10759;51.982;9.232;2023-05-11T07:38:37;100123.38;;;15.56;100.00
21203;BME280;10759;51.982;9.232;2023-05-11T07:41:05;100203.56;;;16.13;100.00
21203;BME280;10759;51.982;9.232;2023-05-11T07:43:36;100216.97;;;16.14;100.00
21203;BME280;10759;51.982;9.232;2023-05-11T07:46:04;100186.56;;;15.82;100.00
21203;BME280;10759;51.982;9.232;2023-05-11T07:48:32;100210.25;;;15.93;100.00
21203;BME280;10759;51.982;9.232;2023-05-11T07:51:00;100221.03;;;16.07;100.00
21203;BME280;10759;51.982;9.232;2023-05-11T07:53:30;100222.84;;;16.21;100.00
21203;BME280;10759;51.982;9.232;2023-05-11T07:55:58;100220.22;;;16.34;100.00
21203;BME280;10759;51.982;9.232;2023-05-11T07:58:26;100220.72;;;16.40;100.00
21203;BME280;10759;51.982;9.232;2023-05-11T08:00:54;100224.56;;;16.50;100.00
21203;BME280;10759;51.982;9.232;2023-05-11T08:03:22;100197.16;;;16.42;100.00
21203;BME280;10759;51.982;9.232;2023-05-11T08:05:50;100225.88;;;16.58;100.00
21203;BME280;10759;51.982;9.232;2023-05-11T08:08:18;100233.66;;;16.49;100.00
21203;BME280;10759;51.982;9.232;2023-05-11T08:10:47;100225.88;;;16.58;100.00
21203;BME280;10759;51.982;9.232;2023-05-11T08:13:15;100228.34;;;16.75;100.00
21203;BME280;10759;51.982;9.232;2023-05-11T08:15:44;100229.50;;;16.85;100.00
21203;BME280;10759;51.982;9.232;2023-05-11T08:18:12;100222.81;;;16.64;100.00
21203;BME280;10759;51.982;9.232;2023-05-11T08:20:40;100224.88;;;16.73;100.00
21203;BME280;10759;51.982;9.232;2023-05-11T08:23:08;100230.13;;;16.76;100.00
21203;BME280;10759;51.982;9.232;2023-05-11T08:25:49;100227.78;;;16.84;100.00
21203;BME280;10759;51.982;9.232;2023-05-11T08:28:18;100237.44;;;16.74;100.00
21203;BME280;10759;51.982;9.232;2023-05-11T08:30:53;100236.50;;;16.61;100.00
21203;BME280;10759;51.982;9.232;2023-05-11T08:33:21;100230.75;;;16.38;100.00
21203;BME280;10759;51.982;9.232;2023-05-11T08:36:04;100233.28;;;16.68;100.00
21203;BME280;10759;51.982;9.232;2023-05-11T08:38:33;100232.69;;;16.78;100.00
21203;BME280;10759;51.982;9.232;2023-05-11T08:41:03;100230.28;;;16.87;100.00
21203;BME280;10759;51.982;9.232;2023-05-11T08:43:34;100234.97;;;16.98;100.00
21203;BME280;10759;51.982;9.232;2023-05-11T08:46:03;100237.25;;;16.77;100.00
21203;BME280;10759;51.982;9.232;2023-05-11T08:48:33;100235.56;;;16.62;100.00
21203;BME280;10759;51.982;9.232;2023-05-11T08:51:02;100229.41;;;16.45;100.00
21203;BME280;10759;51.982;9.232;2023-05-11T08:53:30;100230.53;;;16.41;100.00
21203;BME280;10759;51.982;9.232;2023-05-11T08:56:00;100227.75;;;16.43;100.00
21203;BME280;10759;51.982;9.232;2023-05-11T08:58:34;100163.31;;;16.08;100.00
21203;BME280;10759;51.982;9.232;2023-05-11T09:01:04;100233.56;;;16.37;100.00
21203;BME280;10759;51.982;9.232;2023-05-11T09:03:34;100205.59;;;15.95;100.00
21203;BME280;10759;51.982;9.232;2023-05-11T09:06:03;100223.56;;;15.96;100.00
21203;BME280;10759;51.982;9.232;2023-05-11T09:08:33;100235.50;;;15.92;100.00
21203;BME280;10759;51.982;9.232;2023-05-11T09:11:02;100235.22;;;15.82;100.00
21203;BME280;10759;51.982;9.232;2023-05-11T09:13:30;100242.84;;;15.89;100.00
21203;BME280;10759;51.982;9.232;2023-05-11T09:15:59;100231.84;;;15.78;100.00
21203;BME280;10759;51.982;9.232;2023-05-11T09:18:27;100231.66;;;15.81;100.00
21203;BME280;10759;51.982;9.232;2023-05-11T09:20:56;100214.56;;;15.81;100.00
21203;BME280;10759;51.982;9.232;2023-05-11T09:23:25;100213.75;;;15.64;100.00
21203;BME280;10759;51.982;9.232;2023-05-11T09:25:53;100236.47;;;15.91;100.00
21203;BME280;10759;51.982;9.232;2023-05-11T09:28:22;100235.88;;;15.71;100.00
21203;BME280;10759;51.982;9.232;2023-05-11T09:30:51;100232.31;;;15.71;100.00
21203;BME280;10759;51.982;9.232;2023-05-11T09:33:24;100192.53;;;15.58;100.00
21203;BME280;10759;51.982;9.232;2023-05-11T09:35:53;100234.84;;;15.88;100.00
21203;BME280;10759;51.982;9.232;2023-05-11T09:38:24;100218.91;;;15.83;100.00
21203;BME280;10759;51.982;9.232;2023-05-11T09:40:53;100205.41;;;15.98;100.00
21203;BME280;10759;51.982;9.232;2023-05-11T09:43:23;100227.69;;;16.16;100.00
21203;BME280;10759;51.982;9.232;2023-05-11T09:45:53;100152.91;;;15.73;100.00
21203;BME280;10759;51.982;9.232;2023-05-11T09:48:27;100217.09;;;16.13;100.00
21203;BME280;10759;51.982;9.232;2023-05-11T09:51:02;100224.41;;;16.25;100.00
21203;BME280;10759;51.982;9.232;2023-05-11T09:53:38;100232.50;;;16.39;100.00
21203;BME280;10759;51.982;9.232;2023-05-11T09:56:09;100230.75;;;16.38;100.00
21203;BME280;10759;51.982;9.232;2023-05-11T09:58:51;100229.22;;;16.34;100.00
21203;BME280;10759;51.982;9.232;2023-05-11T10:01:28;100217.03;;;16.41;100.00
21203;BME280;10759;51.982;9.232;2023-05-11T10:03:59;100219.03;;;16.66;100.00
21203;BME280;10759;51.982;9.232;2023-05-11T10:06:44;100220.06;;;16.22;100.00
21203;BME280;10759;51.982;9.232;2023-05-11T10:09:12;100219.66;;;16.28;100.00
21203;BME280;10759;51.982;9.232;2023-05-11T10:11:43;100219.50;;;16.59;100.00
21203;BME280;10759;51.982;9.232;2023-05-11T10:14:12;100226.63;;;16.74;100.00
21203;BME280;10759;51.982;9.232;2023-05-11T10:16:41;100209.72;;;16.70;100.00
21203;BME280;10759;51.982;9.232;2023-05-11T10:19:11;100136.69;;;16.43;100.00
21203;BME280;10759;51.982;9.232;2023-05-11T10:21:40;100224.44;;;16.66;100.00
21203;BME280;10759;51.982;9.232;2023-05-11T10:24:09;100223.19;;;16.58;100.00
21203;BME280;10759;51.982;9.232;2023-05-11T10:26:37;100225.28;;;16.81;100.00
21203;BME280;10759;51.982;9.232;2023-05-11T10:29:06;100208.28;;;16.65;100.00
21203;BME280;10759;51.982;9.232;2023-05-11T10:31:34;100183.94;;;16.38;100.00
21203;BME280;10759;51.982;9.232;2023-05-11T10:34:04;100213.34;;;16.57;100.00
21203;BME280;10759;51.982;9.232;2023-05-11T10:36:34;100224.16;;;16.57;100.00
21203;BME280;10759;51.982;9.232;2023-05-11T10:39:03;100121.94;;;15.93;100.00
21203;BME280;10759;51.982;9.232;2023-05-11T10:41:40;100212.00;;;16.49;100.00
21203;BME280;10759;51.982;9.232;2023-05-11T10:44:24;100216.50;;;16.63;100.00
21203;BME280;10759;51.982;9.232;2023-05-11T10:47:17;100206.63;;;16.77;100.00
21203;BME280;10759;51.982;9.232;2023-05-11T10:50:19;100199.75;;;16.71;100.00
21203;BME280;10759;51.982;9.232;2023-05-11T10:53:02;100214.91;;;16.88;100.00
21203;BME280;10759;51.982;9.232;2023-05-11T10:55:48;100211.94;;;17.05;100.00
21203;BME280;10759;51.982;9.232;2023-05-11T10:58:33;100187.88;;;16.73;100.00
21203;BME280;10759;51.982;9.232;2023-05-11T11:01:27;100213.09;;;16.88;100.00
21203;BME280;10759;51.982;9.232;2023-05-11T11:03:59;100213.69;;;16.79;100.00
21203;BME280;10759;51.982;9.232;2023-05-11T11:06:28;100208.97;;;16.95;100.00
21203;BME280;10759;51.982;9.232;2023-05-11T11:09:00;100199.94;;;17.09;100.00
21203;BME280;10759;51.982;9.232;2023-05-11T11:11:30;100167.09;;;16.74;100.00
21203;BME280;10759;51.982;9.232;2023-05-11T11:14:00;100208.97;;;16.95;100.00
21203;BME280;10759;51.982;9.232;2023-05-11T11:16:31;100219.63;;;16.99;100.00
21203;BME280;10759;51.982;9.232;2023-05-11T11:19:34;100221.84;;;16.92;100.00
21203;BME280;10759;51.982;9.232;2023-05-11T11:22:03;100209.63;;;16.86;100.00
21203;BME280;10759;51.982;9.232;2023-05-11T11:24:45;100175.91;;;16.36;100.00
21203;BME280;10759;51.982;9.232;2023-05-11T11:27:13;100194.66;;;16.39;100.00
21203;BME280;10759;51.982;9.232;2023-05-11T11:30:14;100194.25;;;16.45;100.00
21203;BME280;10759;51.982;9.232;2023-05-11T11:32:44;100207.72;;;16.60;100.00
21203;BME280;10759;51.982;9.232;2023-05-11T11:35:46;100215.91;;;16.72;100.00
21203;BME280;10759;51.982;9.232;2023-05-11T11:38:16;100217.75;;;16.72;100.00
21203;BME280;10759;51.982;9.232;2023-05-11T11:40:46;100190.41;;;16.35;100.00
21203;BME280;10759;51.982;9.232;2023-05-11T11:43:19;100200.44;;;16.33;100.00
21203;BME280;10759;51.982;9.232;2023-05-11T11:45:51;100209.41;;;16.34;100.00
21203;BME280;10759;51.982;9.232;2023-05-11T11:48:21;100219.72;;;16.41;100.00
21203;BME280;10759;51.982;9.232;2023-05-11T11:51:02;100212.66;;;16.53;100.00
21203;BME280;10759;51.982;9.232;2023-05-11T11:54:04;100219.09;;;16.79;100.00
21203;BME280;10759;51.982;9.232;2023-05-11T11:56:44;100223.16;;;16.72;100.00
21203;BME280;10759;51.982;9.232;2023-05-11T11:59:13;100221.81;;;16.79;100.00
21203;BME280;10759;51.982;9.232;2023-05-11T12:01:43;100156.59;;;16.42;100.00
21203;BME280;10759;51.982;9.232;2023-05-11T12:04:38;100205.53;;;16.93;100.00
21203;BME280;10759;51.982;9.232;2023-05-11T12:07:11;100220.22;;;16.89;100.00
21203;BME280;10759;51.982;9.232;2023-05-11T12:09:39;100213.28;;;16.85;100.00
21203;BME280;10759;51.982;9.232;2023-05-11T12:12:09;100219.47;;;16.73;100.00
21203;BME280;10759;51.982;9.232;2023-05-11T12:14:38;100179.41;;;16.24;100.00
21203;BME280;10759;51.982;9.232;2023-05-11T12:17:10;100168.44;;;15.98;100.00
21203;BME280;10759;51.982;9.232;2023-05-11T12:19:42;100219.41;;;15.90;100.00
21203;BME280;10759;51.982;9.232;2023-05-11T12:22:11;100212.03;;;15.92;100.00
21203;BME280;10759;51.982;9.232;2023-05-11T12:24:41;100216.59;;;15.92;100.00
21203;BME280;10759;51.982;9.232;2023-05-11T12:27:11;100185.81;;;15.80;100.00
21203;BME280;10759;51.982;9.232;2023-05-11T12:29:39;100215.63;;;16.07;100.00
21203;BME280;10759;51.982;9.232;2023-05-11T12:32:10;100221.44;;;16.01;100.00
21203;BME280;10759;51.982;9.232;2023-05-11T12:34:39;100216.28;;;15.82;100.00
21203;BME280;10759;51.982;9.232;2023-05-11T12:37:07;100222.69;;;15.95;100.00
21203;BME280;10759;51.982;9.232;2023-05-11T12:39:36;100220.56;;;16.00;100.00
21203;BME280;10759;51.982;9.232;2023-05-11T12:42:05;100212.06;;;16.06;100.00
21203;BME280;10759;51.982;9.232;2023-05-11T12:44:34;100187.06;;;16.03;100.00
21203;BME280;10759;51.982;9.232;2023-05-11T12:47:03;100038.03;;;15.24;100.00
21203;BME280;10759;51.982;9.232;2023-05-11T12:49:31;100205.28;;;16.14;100.00
21203;BME280;10759;51.982;9.232;2023-05-11T12:52:01;100111.78;;;15.68;100.00
21203;BME280;10759;51.982;9.232;2023-05-11T12:54:34;100194.69;;;16.10;100.00
21203;BME280;10759;51.982;9.232;2023-05-11T12:57:04;100199.31;;;16.23;100.00
21203;BME280;10759;51.982;9.232;2023-05-11T12:59:35;100202.38;;;16.31;100.00